Time;durP1;ratioP1;P1;durP2;ratioP2;P2;SDS_P1;SDS_P2;PMS_P1;PMS_P2;Temp;Humidity;BMP_temperature;BMP_pressure;BME280_temperature;BME280_humidity;BME280_pressure;Samples;Min_cycle;Max_cycle;Signal;HPM_P1;HPM_P2
2023/01/06 03:00:39;;;;;;;11.03;10.23;;;8.90;99.90;;;;;;5964257;23;20169;31
2023/01/06 03:03:12;;;;;;;10.53;9.93;;;8.90;99.90;;;;;;4893612;29;20214;-79
2023/01/06 03:05:40;;;;;;;10.73;10.13;;;8.90;99.90;;;;;;4871628;29;20189;-79
2023/01/06 03:08:12;;;;;;;10.60;9.90;;;8.90;99.90;;;;;;4892926;29;20297;-80
2023/01/06 03:10:43;;;;;;;10.70;10.10;;;8.90;99.90;;;;;;4864375;29;20206;-79
2023/01/06 03:13:19;;;;;;;11.17;10.47;;;8.90;99.90;;;;;;4866630;29;20624;-81
2023/01/06 03:15:45;;;;;;;10.60;10.00;;;8.90;99.90;;;;;;4872695;29;20196;-79
2023/01/06 03:18:14;;;;;;;10.93;10.33;;;8.90;99.90;;;;;;4869806;29;20247;-79
2023/01/06 03:20:40;;;;;;;10.90;10.30;;;8.80;99.90;;;;;;4871799;29;20201;-79
2023/01/06 03:23:08;;;;;;;11.10;10.40;;;8.80;99.90;;;;;;4868924;29;20205;-79
2023/01/06 03:25:38;;;;;;;11.10;10.40;;;8.80;99.90;;;;;;4857499;29;20202;-79
2023/01/06 03:28:06;;;;;;;11.10;10.40;;;8.80;99.90;;;;;;4868742;29;20191;-80
2023/01/06 03:30:47;;;;;;;10.90;10.20;;;8.80;99.90;;;;;;4872194;29;20205;-78
2023/01/06 03:33:22;;;;;;;10.77;10.03;;;8.80;99.90;;;;;;4870496;29;20739;-79
2023/01/06 03:36:05;;;;;;;10.80;10.13;;;8.70;99.90;;;;;;4865504;29;20220;-79
2023/01/06 03:38:43;;;;;;;10.60;10.00;;;8.60;99.90;;;;;;4869223;29;20222;-79
2023/01/06 03:43:10;;;;;;;10.90;10.20;;;8.50;99.90;;;;;;4864131;29;20233;-82
2023/01/06 03:44:20;;;;;;;11.37;10.57;;;8.40;99.90;;;;;;4871008;29;20612;-80
2023/01/06 03:46:54;;;;;;;11.30;10.60;;;8.30;99.90;;;;;;4868189;29;20766;-80
2023/01/06 03:49:31;;;;;;;11.57;10.77;;;8.20;99.90;;;;;;4871818;29;20937;-79
2023/01/06 03:52:05;;;;;;;11.57;10.87;;;8.10;99.90;;;;;;4866512;29;20245;-81
2023/01/06 03:54:40;;;;;;;11.37;10.67;;;8.00;99.90;;;;;;4877941;29;20291;-80
2023/01/06 03:57:12;;;;;;;11.13;10.50;;;8.00;99.90;;;;;;4865824;29;20243;-78
2023/01/06 03:59:43;;;;;;;11.03;10.43;;;7.90;99.90;;;;;;4854401;29;20603;-79
2023/01/06 04:02:13;;;;;;;11.27;10.60;;;7.80;99.90;;;;;;4863528;29;20293;-80
2023/01/06 04:04:42;;;;;;;11.40;10.70;;;7.80;99.90;;;;;;4863655;29;20202;-78
2023/01/06 04:07:10;;;;;;;11.50;10.80;;;7.70;99.90;;;;;;4863928;29;20202;-79
2023/01/06 04:09:40;;;;;;;11.63;10.93;;;7.70;99.90;;;;;;4863367;29;20558;-79
2023/01/06 04:14:53;;;;;;;11.80;11.00;;;7.60;99.90;;;;;;4864004;29;20197;-81
2023/01/06 04:17:20;;;;;;;12.23;11.43;;;7.60;99.90;;;;;;4866222;29;20237;-79
2023/01/06 04:19:48;;;;;;;11.73;11.03;;;7.50;99.90;;;;;;4857080;29;20630;-80
2023/01/06 04:22:15;;;;;;;11.47;10.77;;;7.50;99.90;;;;;;4860350;29;20691;-78
2023/01/06 04:24:42;;;;;;;11.47;10.77;;;7.50;99.90;;;;;;4865091;29;20200;-78
2023/01/06 04:27:09;;;;;;;11.83;11.07;;;7.40;99.90;;;;;;4864686;29;20206;-78
2023/01/06 04:29:37;;;;;;;11.33;10.63;;;7.40;99.90;;;;;;4855496;29;20599;-80
2023/01/06 04:32:05;;;;;;;11.67;10.97;;;7.40;99.90;;;;;;4861212;29;20229;-80
2023/01/06 04:34:32;;;;;;;12.00;11.30;;;7.40;99.90;;;;;;4860656;29;20633;-81
2023/01/06 04:37:00;;;;;;;12.30;11.60;;;7.40;99.90;;;;;;4861228;29;20251;-78
2023/01/06 04:39:27;;;;;;;13.30;12.50;;;7.30;99.90;;;;;;4855608;29;20225;-79
2023/01/06 04:41:54;;;;;;;13.00;12.20;;;7.30;99.90;;;;;;4863475;29;20297;-79
2023/01/06 04:44:21;;;;;;;13.30;12.50;;;7.20;99.90;;;;;;4857757;29;21019;-80
2023/01/06 04:46:47;;;;;;;13.40;12.60;;;7.20;99.90;;;;;;4860921;29;20254;-80
2023/01/06 04:49:14;;;;;;;13.33;12.53;;;7.10;99.90;;;;;;4868421;29;20213;-79
2023/01/06 04:51:41;;;;;;;12.80;12.03;;;7.10;99.90;;;;;;4868239;29;20670;-79
2023/01/06 04:54:09;;;;;;;14.00;13.00;;;7.10;99.90;;;;;;4864970;29;20274;-78
2023/01/06 04:56:36;;;;;;;14.20;13.30;;;7.10;99.90;;;;;;4870979;29;20202;-77
2023/01/06 04:59:03;;;;;;;14.20;13.30;;;7.10;99.90;;;;;;4862291;29;20615;-78
2023/01/06 05:01:30;;;;;;;14.83;13.83;;;7.00;99.90;;;;;;4876423;29;20266;-78
2023/01/06 05:03:56;;;;;;;14.30;13.30;;;7.00;99.90;;;;;;4865834;29;20201;-78
2023/01/06 05:06:24;;;;;;;14.10;13.20;;;7.00;99.90;;;;;;4866634;29;20741;-80
2023/01/06 05:08:50;;;;;;;13.53;12.73;;;7.00;99.90;;;;;;4862665;29;20196;-77
2023/01/06 05:11:21;;;;;;;13.73;12.70;;;7.00;99.90;;;;;;4864675;29;20260;-78
2023/01/06 05:13:48;;;;;;;13.40;12.60;;;7.00;99.90;;;;;;4869424;29;20262;-80
2023/01/06 05:16:19;;;;;;;12.77;12.07;;;7.00;99.90;;;;;;4866569;29;20212;-78
2023/01/06 05:18:46;;;;;;;13.40;12.60;;;7.00;99.90;;;;;;4873797;29;20267;-80
2023/01/06 05:21:13;;;;;;;13.00;12.30;;;6.90;99.90;;;;;;4868336;29;20647;-77
2023/01/06 05:23:41;;;;;;;12.77;12.07;;;6.90;99.90;;;;;;4863487;29;20225;-79
2023/01/06 05:26:15;;;;;;;12.80;12.10;;;6.90;99.90;;;;;;4863297;29;20750;-76
2023/01/06 05:28:43;;;;;;;12.73;12.03;;;6.90;99.90;;;;;;4866783;29;20202;-78
2023/01/06 05:31:11;;;;;;;12.83;12.13;;;6.80;99.90;;;;;;4869924;29;20221;-78
2023/01/06 05:33:38;;;;;;;12.77;12.00;;;6.80;99.90;;;;;;4866178;29;20265;-78
2023/01/06 05:36:07;;;;;;;12.40;11.70;;;6.80;99.90;;;;;;4867556;29;20213;-78
2023/01/06 05:38:34;;;;;;;12.90;12.20;;;6.70;99.90;;;;;;4865184;29;20229;-80
2023/01/06 05:41:01;;;;;;;13.07;12.27;;;6.80;99.90;;;;;;4853782;29;20234;-78
2023/01/06 05:43:28;;;;;;;12.90;12.10;;;6.70;99.90;;;;;;4862822;29;20209;-78
2023/01/06 05:45:56;;;;;;;12.73;12.03;;;6.70;99.90;;;;;;4862800;29;20212;-78
2023/01/06 05:48:26;;;;;;;12.60;11.80;;;6.70;99.90;;;;;;4870313;29;20201;-78
2023/01/06 05:50:52;;;;;;;12.73;12.03;;;6.70;99.90;;;;;;4868235;29;20258;-79
2023/01/06 05:53:19;;;;;;;12.53;11.83;;;6.80;99.90;;;;;;4870648;29;20282;-80
2023/01/06 05:55:46;;;;;;;12.50;11.80;;;6.90;99.90;;;;;;4866100;29;20210;-79
2023/01/06 05:58:13;;;;;;;12.63;11.87;;;6.90;99.90;;;;;;4884035;29;20232;-79
2023/01/06 06:00:39;;;;;;;12.40;11.60;;;6.90;99.90;;;;;;4866778;29;20285;-80
2023/01/06 06:03:08;;;;;;;12.60;11.90;;;6.90;99.90;;;;;;4855752;29;20285;-80
2023/01/06 06:05:34;;;;;;;12.47;11.77;;;6.80;99.90;;;;;;4869228;29;20214;-80
2023/01/06 06:08:01;;;;;;;13.10;12.20;;;6.70;99.90;;;;;;4853638;29;20206;-80
2023/01/06 06:10:28;;;;;;;12.40;11.70;;;6.70;99.90;;;;;;4859400;29;20200;-79
2023/01/06 06:12:55;;;;;;;12.73;11.83;;;6.60;99.90;;;;;;4865997;29;20209;-80
2023/01/06 06:15:21;;;;;;;12.60;11.90;;;6.50;99.90;;;;;;4870099;29;20206;-80
2023/01/06 06:17:48;;;;;;;12.70;12.00;;;6.50;99.90;;;;;;4867011;29;20256;-85
2023/01/06 06:20:16;;;;;;;12.80;12.00;;;6.40;99.90;;;;;;4871694;29;20232;-83
2023/01/06 06:22:43;;;;;;;13.00;12.20;;;6.40;99.90;;;;;;4862554;29;20217;-80
2023/01/06 06:25:10;;;;;;;12.77;11.97;;;6.30;99.90;;;;;;4864298;29;20237;-80
2023/01/06 06:27:38;;;;;;;13.00;12.20;;;6.40;99.90;;;;;;4871620;29;20205;-80
2023/01/06 06:30:06;;;;;;;12.60;11.90;;;6.30;99.90;;;;;;4863261;29;20634;-80
2023/01/06 06:32:33;;;;;;;12.97;12.27;;;6.30;99.90;;;;;;4869653;29;20220;-80
2023/01/06 06:35:00;;;;;;;12.87;12.10;;;6.20;99.90;;;;;;4869782;29;20204;-80
2023/01/06 06:37:28;;;;;;;12.80;12.10;;;6.20;99.90;;;;;;4864631;29;20629;-80
2023/01/06 06:39:55;;;;;;;13.03;12.23;;;6.20;99.90;;;;;;4857027;29;20232;-79
2023/01/06 06:42:21;;;;;;;13.50;12.70;;;6.10;99.90;;;;;;4858309;29;20224;-79
2023/01/06 06:44:48;;;;;;;13.73;12.83;;;6.10;99.90;;;;;;4863603;29;20252;-79
2023/01/06 06:47:15;;;;;;;13.17;12.37;;;6.10;99.90;;;;;;4866405;29;20215;-78
2023/01/06 06:49:42;;;;;;;13.37;12.57;;;6.00;99.90;;;;;;4854942;29;20361;-78
2023/01/06 06:52:09;;;;;;;13.27;12.47;;;6.00;99.90;;;;;;4865566;29;20277;-77
2023/01/06 06:54:37;;;;;;;14.43;13.53;;;6.00;99.90;;;;;;4865085;29;20625;-79
2023/01/06 06:57:04;;;;;;;13.90;13.00;;;6.00;99.90;;;;;;4864228;29;20212;-78
2023/01/06 06:59:30;;;;;;;13.57;12.57;;;6.00;99.90;;;;;;4860587;29;20210;-80
2023/01/06 07:01:57;;;;;;;12.87;12.13;;;5.90;99.90;;;;;;4867829;29;20287;-79
2023/01/06 07:04:24;;;;;;;13.83;12.93;;;5.80;99.90;;;;;;4872265;29;20676;-78
2023/01/06 07:06:51;;;;;;;12.83;11.97;;;5.80;99.90;;;;;;4867734;29;20262;-79
2023/01/06 07:09:18;;;;;;;12.73;11.93;;;5.80;99.90;;;;;;4864197;29;20279;-79
2023/01/06 07:11:46;;;;;;;13.10;12.20;;;5.80;99.90;;;;;;4871964;29;20232;-78
2023/01/06 07:14:12;;;;;;;12.70;12.00;;;5.90;99.90;;;;;;4870104;29;20224;-77
2023/01/06 07:16:39;;;;;;;13.13;12.33;;;5.90;99.90;;;;;;4864340;29;20204;-78
2023/01/06 07:19:08;;;;;;;13.93;13.00;;;5.90;99.90;;;;;;4883401;29;20621;-79
2023/01/06 07:21:35;;;;;;;13.67;12.83;;;5.90;99.90;;;;;;4873318;29;20223;-79
2023/01/06 07:24:02;;;;;;;13.87;12.97;;;6.00;99.90;;;;;;4868627;29;20667;-79
2023/01/06 07:26:28;;;;;;;13.90;13.00;;;6.00;99.90;;;;;;4860069;29;20208;-78
2023/01/06 07:28:57;;;;;;;13.30;12.50;;;6.10;99.90;;;;;;4870537;29;20767;-79
2023/01/06 07:31:23;;;;;;;13.87;13.07;;;6.20;99.90;;;;;;4869043;29;20704;-79
2023/01/06 07:33:50;;;;;;;13.83;13.03;;;6.30;99.90;;;;;;4869324;29;20200;-78
2023/01/06 07:36:17;;;;;;;14.40;13.50;;;6.30;99.90;;;;;;4860795;29;20236;-79
2023/01/06 07:38:44;;;;;;;13.70;12.90;;;6.30;99.90;;;;;;4874756;29;20261;-79
2023/01/06 07:41:11;;;;;;;13.00;12.30;;;6.40;99.90;;;;;;4869964;29;20280;-78
2023/01/06 07:43:37;;;;;;;13.73;12.93;;;6.50;99.90;;;;;;4881077;29;20662;-78
2023/01/06 07:46:05;;;;;;;14.00;13.10;;;6.50;99.90;;;;;;4864532;29;20211;-79
2023/01/06 07:48:32;;;;;;;14.13;13.33;;;6.50;99.90;;;;;;4865384;29;20215;-78
2023/01/06 07:50:59;;;;;;;14.10;13.10;;;6.60;99.90;;;;;;4869624;29;20232;-79
2023/01/06 07:53:26;;;;;;;14.00;13.10;;;6.70;99.90;;;;;;4872938;29;20231;-78
2023/01/06 07:55:53;;;;;;;14.50;13.63;;;6.70;99.90;;;;;;4870165;29;20211;-78
2023/01/06 07:58:22;;;;;;;14.50;13.60;;;6.80;99.90;;;;;;4872743;29;20275;-79
2023/01/06 08:00:49;;;;;;;19.00;17.20;;;7.00;99.90;;;;;;4875098;29;20251;-79
2023/01/06 08:03:17;;;;;;;18.17;16.77;;;7.00;99.90;;;;;;4867408;29;20210;-78
2023/01/06 08:05:44;;;;;;;17.10;15.90;;;7.20;99.90;;;;;;4870855;29;20197;-79
2023/01/06 08:08:12;;;;;;;16.40;15.20;;;7.30;99.90;;;;;;4873222;29;20264;-78
2023/01/06 08:10:39;;;;;;;15.43;14.33;;;7.40;99.90;;;;;;4865299;29;20261;-78
2023/01/06 08:13:06;;;;;;;14.77;13.80;;;7.60;99.90;;;;;;4864712;29;20577;-78
2023/01/06 08:15:33;;;;;;;13.53;12.73;;;7.80;99.90;;;;;;4859734;29;20201;-79
2023/01/06 08:18:00;;;;;;;14.03;13.13;;;7.90;99.90;;;;;;4872759;29;20224;-78
2023/01/06 08:20:28;;;;;;;13.50;12.63;;;8.00;99.90;;;;;;4863176;29;20277;-79
2023/01/06 08:22:57;;;;;;;13.30;12.50;;;8.10;99.90;;;;;;4872079;29;20233;-79
2023/01/06 08:25:23;;;;;;;13.20;12.40;;;8.20;99.90;;;;;;4869240;29;20637;-79
2023/01/06 08:27:50;;;;;;;13.13;12.23;;;8.20;99.90;;;;;;4864575;29;20209;-79
2023/01/06 08:30:20;;;;;;;12.50;11.80;;;8.30;99.90;;;;;;4863313;29;20201;-80
2023/01/06 08:32:47;;;;;;;12.33;11.63;;;8.40;99.90;;;;;;4861462;29;20583;-79
2023/01/06 08:35:14;;;;;;;12.73;11.93;;;8.40;99.90;;;;;;4872208;29;20257;-79
2023/01/06 08:37:42;;;;;;;13.00;12.10;;;8.30;99.90;;;;;;4866649;29;20253;-79
2023/01/06 08:40:10;;;;;;;12.10;11.30;;;8.30;99.90;;;;;;4862191;29;20727;-78
2023/01/06 08:42:37;;;;;;;11.73;11.03;;;8.30;99.90;;;;;;4868857;29;20221;-78
2023/01/06 08:45:04;;;;;;;12.13;11.43;;;8.30;99.90;;;;;;4868686;29;20241;-79
2023/01/06 08:47:31;;;;;;;11.90;11.10;;;8.50;99.90;;;;;;4864319;29;20246;-79
2023/01/06 08:49:58;;;;;;;12.07;11.27;;;8.50;99.90;;;;;;4864349;29;20194;-79
2023/01/06 08:52:24;;;;;;;11.90;11.20;;;8.60;99.90;;;;;;4868070;29;20783;-79
2023/01/06 08:54:53;;;;;;;11.53;10.83;;;8.60;99.90;;;;;;4865260;29;20689;-79
2023/01/06 08:57:19;;;;;;;11.43;10.73;;;8.70;99.90;;;;;;4867873;29;20210;-79
2023/01/06 08:59:46;;;;;;;11.27;10.57;;;8.80;99.90;;;;;;4862284;29;20218;-79
2023/01/06 09:02:13;;;;;;;11.27;10.57;;;8.80;99.90;;;;;;4865948;29;20231;-79
2023/01/06 09:04:40;;;;;;;11.50;10.80;;;8.80;99.90;;;;;;4877736;29;20214;-79
2023/01/06 09:07:07;;;;;;;12.03;11.23;;;8.80;99.90;;;;;;4866132;29;20229;-79
2023/01/06 09:09:33;;;;;;;11.30;10.60;;;8.70;99.90;;;;;;4867992;29;20246;-78
2023/01/06 09:12:02;;;;;;;12.20;11.40;;;8.80;99.90;;;;;;4869719;29;20222;-79
2023/01/06 09:14:40;;;;;;;11.80;11.10;;;8.80;99.90;;;;;;4862289;29;20212;-78
2023/01/06 09:17:07;;;;;;;11.87;11.17;;;8.80;99.90;;;;;;4882077;29;20213;-79
2023/01/06 09:19:34;;;;;;;11.97;11.20;;;8.80;99.90;;;;;;4870461;29;20225;-79
2023/01/06 09:22:01;;;;;;;12.10;11.30;;;8.80;99.90;;;;;;4869569;29;20658;-79
2023/01/06 09:24:27;;;;;;;12.60;11.80;;;8.70;99.90;;;;;;4857682;29;20240;-78
2023/01/06 09:26:54;;;;;;;12.50;11.60;;;8.70;99.90;;;;;;4861717;29;20232;-78
2023/01/06 09:29:22;;;;;;;11.83;11.13;;;8.80;99.90;;;;;;4864574;29;20202;-79
2023/01/06 09:31:49;;;;;;;12.27;11.47;;;8.80;99.90;;;;;;4862112;29;20738;-79
2023/01/06 09:34:16;;;;;;;12.00;11.20;;;8.90;99.90;;;;;;4869962;29;20232;-79
2023/01/06 09:36:43;;;;;;;11.60;10.80;;;8.90;99.90;;;;;;4871083;29;20582;-79
2023/01/06 09:39:09;;;;;;;12.97;12.00;;;9.00;99.90;;;;;;4866503;29;20273;-78
2023/01/06 09:41:56;;;;;;;12.83;11.93;;;9.10;99.90;;;;;;4860631;29;20252;-79
2023/01/06 09:44:29;;;;;;;13.43;12.43;;;9.20;99.90;;;;;;4860319;29;20197;-78
2023/01/06 09:46:58;;;;;;;13.97;12.97;;;9.20;99.90;;;;;;4858577;29;20248;-79
2023/01/06 09:49:29;;;;;;;13.60;12.50;;;9.30;99.90;;;;;;4864605;29;20244;-79
2023/01/06 09:51:59;;;;;;;13.97;12.80;;;9.40;99.90;;;;;;4871979;29;20230;-79
2023/01/06 09:54:29;;;;;;;13.30;12.40;;;9.50;99.90;;;;;;4871166;29;20193;-79
2023/01/06 09:57:02;;;;;;;12.93;12.03;;;9.70;99.90;;;;;;4865287;29;20479;-79
2023/01/06 09:59:37;;;;;;;12.53;11.70;;;9.90;99.90;;;;;;4861102;29;20205;-79
2023/01/06 10:02:11;;;;;;;12.47;11.63;;;10.00;99.90;;;;;;4849270;29;20234;-80
2023/01/06 10:04:38;;;;;;;13.70;12.70;;;10.10;99.90;;;;;;4869207;29;20206;-81
2023/01/06 10:07:14;;;;;;;12.27;11.47;;;10.10;99.90;;;;;;4853741;29;20203;-82
2023/01/06 10:09:51;;;;;;;12.63;11.73;;;10.20;99.90;;;;;;4855331;29;20216;-82
2023/01/06 10:12:31;;;;;;;13.33;12.43;;;10.30;99.90;;;;;;4869958;29;20227;-82
2023/01/06 10:15:12;;;;;;;12.83;11.93;;;10.30;99.90;;;;;;4876145;29;20207;-79
2023/01/06 10:18:09;;;;;;;12.87;11.97;;;10.30;99.90;;;;;;4860621;29;20272;-78
2023/01/06 10:20:52;;;;;;;12.23;11.43;;;10.30;99.90;;;;;;4856787;29;20284;-78
2023/01/06 10:23:44;;;;;;;12.17;11.37;;;10.50;99.90;;;;;;4866564;29;20287;-80
2023/01/06 10:26:13;;;;;;;11.50;10.80;;;10.70;99.90;;;;;;4862295;29;20212;-80
2023/01/06 10:28:43;;;;;;;11.20;10.57;;;10.90;99.90;;;;;;4854094;29;20239;-81
2023/01/06 10:31:15;;;;;;;11.67;10.87;;;11.00;99.90;;;;;;4867782;29;20227;-82
2023/01/06 10:33:47;;;;;;;11.80;11.10;;;11.10;99.90;;;;;;4873632;29;20251;-81
2023/01/06 10:36:17;;;;;;;11.17;10.57;;;11.20;99.90;;;;;;4876811;29;20215;-80
2023/01/06 10:38:46;;;;;;;11.73;11.10;;;11.20;99.90;;;;;;4863013;29;20263;-80
2023/01/06 10:41:22;;;;;;;11.23;10.63;;;11.20;99.90;;;;;;4873368;29;20299;-81
2023/01/06 10:43:49;;;;;;;11.87;11.17;;;11.10;99.90;;;;;;4869006;29;20655;-81
2023/01/06 10:46:17;;;;;;;11.27;10.57;;;11.10;99.90;;;;;;4875048;29;20207;-80
2023/01/06 10:48:45;;;;;;;11.13;10.53;;;11.00;99.90;;;;;;4872317;29;20262;-80
2023/01/06 10:51:37;;;;;;;11.00;10.40;;;10.90;99.90;;;;;;4860811;29;20255;-81
2023/01/06 10:54:10;;;;;;;11.00;10.40;;;10.90;99.90;;;;;;4861661;29;20207;-80
2023/01/06 10:56:39;;;;;;;10.87;10.27;;;10.80;99.90;;;;;;4867532;29;20194;-80
2023/01/06 10:59:08;;;;;;;10.97;10.37;;;10.80;99.90;;;;;;4867833;29;20207;-81
2023/01/06 11:01:48;;;;;;;10.90;10.30;;;10.80;99.90;;;;;;4879447;29;20224;-82
2023/01/06 11:04:16;;;;;;;11.10;10.50;;;10.70;99.90;;;;;;4871057;29;20294;-81
2023/01/06 11:06:44;;;;;;;11.00;10.40;;;10.70;99.90;;;;;;4873292;29;20275;-82
2023/01/06 11:09:28;;;;;;;11.60;10.90;;;10.80;99.90;;;;;;4875715;29;20256;-81
2023/01/06 11:11:59;;;;;;;11.60;11.00;;;10.80;99.90;;;;;;4879573;29;20260;-80
2023/01/06 11:14:28;;;;;;;11.67;11.00;;;10.90;99.90;;;;;;4875563;29;20210;-80
2023/01/06 11:17:00;;;;;;;11.20;10.60;;;10.90;99.90;;;;;;4875243;29;20205;-81
2023/01/06 11:19:35;;;;;;;11.23;10.60;;;11.10;99.90;;;;;;4872145;29;20553;-80
2023/01/06 11:22:02;;;;;;;11.20;10.60;;;11.20;99.90;;;;;;4874097;29;20238;-81
2023/01/06 11:24:29;;;;;;;11.67;10.97;;;11.30;99.90;;;;;;4875973;29;20206;-82
2023/01/06 11:26:58;;;;;;;11.37;10.77;;;11.30;99.90;;;;;;4873613;29;20214;-81
2023/01/06 11:29:28;;;;;;;10.37;9.83;;;11.30;99.90;;;;;;4873210;29;20268;-82
2023/01/06 11:32:01;;;;;;;10.60;9.90;;;11.30;99.90;;;;;;4871344;29;20265;-81
2023/01/06 11:34:28;;;;;;;10.40;9.70;;;11.30;99.90;;;;;;4863087;29;20213;-78
2023/01/06 11:36:56;;;;;;;10.40;9.80;;;11.20;99.90;;;;;;4873932;29;20289;-81
2023/01/06 11:39:30;;;;;;;10.80;10.20;;;11.20;99.90;;;;;;4873553;29;20196;-81
2023/01/06 11:42:04;;;;;;;10.60;10.00;;;11.20;99.90;;;;;;4867084;29;20240;-80
2023/01/06 11:44:33;;;;;;;10.27;9.77;;;11.20;99.90;;;;;;4855736;29;20624;-82
2023/01/06 11:47:05;;;;;;;10.53;9.93;;;11.20;99.90;;;;;;4870943;29;20230;-80
2023/01/06 11:49:36;;;;;;;10.47;9.87;;;11.30;99.90;;;;;;4869873;29;20245;-81
2023/01/06 11:52:07;;;;;;;10.00;9.50;;;11.50;99.90;;;;;;4871177;29;20228;-81
2023/01/06 11:54:37;;;;;;;10.17;9.57;;;11.60;99.90;;;;;;4876305;29;20298;-81
2023/01/06 11:57:18;;;;;;;9.53;9.03;;;11.70;99.90;;;;;;4859052;29;20208;-82
2023/01/06 12:00:00;;;;;;;9.60;9.10;;;11.70;99.90;;;;;;4869866;29;20811;-80
2023/01/06 12:02:35;;;;;;;9.40;8.90;;;11.70;99.90;;;;;;4861317;29;20258;-82
2023/01/06 12:05:03;;;;;;;9.70;9.20;;;11.70;99.90;;;;;;4864556;29;20214;-81
2023/01/06 12:07:35;;;;;;;9.60;9.10;;;11.60;99.90;;;;;;4863070;29;20264;-81
2023/01/06 12:10:08;;;;;;;9.80;9.30;;;11.60;99.90;;;;;;4851800;29;20257;-81
2023/01/06 12:12:35;;;;;;;9.53;9.03;;;11.60;99.90;;;;;;4864400;29;20231;-82
2023/01/06 12:15:03;;;;;;;9.90;9.40;;;11.60;99.90;;;;;;4872965;29;20233;-82
2023/01/06 12:17:41;;;;;;;9.70;9.20;;;11.60;99.90;;;;;;4859656;29;20209;-79
2023/01/06 12:20:15;;;;;;;9.50;9.00;;;11.60;99.90;;;;;;4856326;29;20305;-80
2023/01/06 12:22:46;;;;;;;9.37;8.87;;;11.60;99.90;;;;;;4873886;29;20225;-80
2023/01/06 12:25:17;;;;;;;9.70;9.13;;;11.70;99.90;;;;;;4858875;29;20208;-80
2023/01/06 12:27:49;;;;;;;9.67;9.17;;;11.70;99.90;;;;;;4875979;29;20204;-81
2023/01/06 12:30:22;;;;;;;9.60;9.10;;;11.70;99.90;;;;;;4860062;29;20206;-81
2023/01/06 12:32:56;;;;;;;9.53;9.03;;;11.70;99.90;;;;;;4873579;29;20831;-81
2023/01/06 12:35:28;;;;;;;9.20;8.70;;;11.70;99.90;;;;;;4867217;29;20208;-81
2023/01/06 12:37:57;;;;;;;10.60;10.00;;;11.70;99.90;;;;;;4865145;29;20208;-81
2023/01/06 12:40:30;;;;;;;9.80;9.30;;;11.80;99.90;;;;;;4870913;29;20219;-82
2023/01/06 12:43:03;;;;;;;9.80;9.30;;;11.80;99.90;;;;;;4868147;29;20211;-80
2023/01/06 12:45:36;;;;;;;10.80;10.20;;;11.90;99.90;;;;;;4871740;29;20256;-81
2023/01/06 12:48:16;;;;;;;9.73;9.23;;;11.90;99.90;;;;;;4872312;29;20269;-81
2023/01/06 12:50:49;;;;;;;9.30;8.80;;;11.80;99.90;;;;;;4868651;29;20392;-80
2023/01/06 12:53:22;;;;;;;9.23;8.73;;;11.80;99.90;;;;;;4877147;29;20193;-83
2023/01/06 12:56:07;;;;;;;9.20;8.70;;;11.80;99.90;;;;;;4857423;29;20190;-82
2023/01/06 12:58:47;;;;;;;8.90;8.40;;;11.90;99.90;;;;;;4851845;29;20259;-82
2023/01/06 13:01:20;;;;;;;9.03;8.53;;;11.90;99.90;;;;;;4872625;29;20308;-81
2023/01/06 13:04:38;;;;;;;8.87;8.47;;;11.90;99.90;;;;;;4864879;29;20262;-79
2023/01/06 13:07:14;;;;;;;9.30;8.60;;;11.90;99.90;;;;;;4869646;29;20605;-82
2023/01/06 13:10:01;;;;;;;9.07;8.57;;;11.90;99.90;;;;;;4865020;29;20758;-78
2023/01/06 13:12:47;;;;;;;8.97;8.43;;;11.80;99.90;;;;;;4861611;29;20252;-84
2023/01/06 13:15:20;;;;;;;9.27;8.77;;;11.70;99.90;;;;;;4863901;29;20209;-80
2023/01/06 13:17:55;;;;;;;9.40;8.90;;;11.70;99.90;;;;;;4862261;29;20279;-81
2023/01/06 13:20:28;;;;;;;9.20;8.70;;;11.60;99.90;;;;;;4870285;29;20205;-80
2023/01/06 13:23:04;;;;;;;9.63;9.07;;;11.60;99.90;;;;;;4862827;29;20722;-79
2023/01/06 13:25:44;;;;;;;9.70;9.10;;;11.60;99.90;;;;;;4860181;29;20208;-79
2023/01/06 13:28:19;;;;;;;9.33;8.83;;;11.50;99.90;;;;;;4866685;29;20210;-80
2023/01/06 13:31:08;;;;;;;8.60;8.10;;;11.50;99.90;;;;;;4856587;29;20659;-81
2023/01/06 13:34:07;;;;;;;9.33;8.73;;;11.50;99.90;;;;;;4854936;29;20211;-81
2023/01/06 13:36:56;;;;;;;10.33;9.63;;;11.50;99.90;;;;;;4824548;29;20217;-81
2023/01/06 13:39:26;;;;;;;10.30;9.70;;;11.60;99.90;;;;;;4861970;29;20208;-80
2023/01/06 13:41:56;;;;;;;10.10;9.50;;;11.60;99.90;;;;;;4858709;29;20225;-81
2023/01/06 13:44:27;;;;;;;10.10;9.50;;;11.60;99.90;;;;;;4869022;29;20217;-80
2023/01/06 13:47:03;;;;;;;10.07;9.47;;;11.60;99.90;;;;;;4865836;29;20209;-81
2023/01/06 13:49:32;;;;;;;9.03;8.57;;;11.60;99.90;;;;;;4870412;29;20263;-81
2023/01/06 13:52:00;;;;;;;9.50;9.00;;;11.60;99.90;;;;;;4867120;29;20224;-81
2023/01/06 13:55:03;;;;;;;9.30;8.80;;;11.70;99.90;;;;;;4858804;29;20204;-81
2023/01/06 13:57:35;;;;;;;9.37;8.87;;;11.60;99.90;;;;;;4857175;29;20304;-81
2023/01/06 14:00:23;;;;;;;9.70;9.20;;;11.60;99.90;;;;;;4856200;29;20214;-81
2023/01/06 14:03:02;;;;;;;9.60;9.10;;;11.60;99.90;;;;;;4867980;29;20234;-80
2023/01/06 14:05:51;;;;;;;9.50;9.00;;;11.60;99.90;;;;;;4860729;29;20207;-82
2023/01/06 14:08:21;;;;;;;9.20;8.70;;;11.50;99.90;;;;;;4859355;29;20227;-80
2023/01/06 14:10:55;;;;;;;9.30;8.80;;;11.50;99.90;;;;;;4851418;29;20232;-80
2023/01/06 14:13:24;;;;;;;9.57;9.07;;;11.50;99.90;;;;;;4849472;29;20307;-78
2023/01/06 14:15:55;;;;;;;9.60;9.10;;;11.50;99.90;;;;;;4871018;29;20286;-79
2023/01/06 14:18:41;;;;;;;9.43;8.93;;;11.50;99.90;;;;;;4869319;29;20215;-79
2023/01/06 14:21:24;;;;;;;9.70;9.10;;;11.50;99.90;;;;;;4873613;29;20220;-79
2023/01/06 14:24:04;;;;;;;9.90;9.30;;;11.50;99.90;;;;;;4861654;29;20230;-78
2023/01/06 14:26:49;;;;;;;10.10;9.50;;;11.40;99.90;;;;;;4853067;29;20259;-79
2023/01/06 14:29:44;;;;;;;9.80;9.20;;;11.40;99.90;;;;;;4862854;29;20218;-80
2023/01/06 14:32:49;;;;;;;9.50;9.00;;;11.30;99.90;;;;;;4864462;29;20232;-80
2023/01/06 14:35:22;;;;;;;9.60;9.10;;;11.30;99.90;;;;;;4860070;29;20208;-80
2023/01/06 14:37:54;;;;;;;9.40;8.90;;;11.30;99.90;;;;;;4871306;29;20650;-80
2023/01/06 14:40:25;;;;;;;9.67;9.17;;;11.20;99.90;;;;;;4863422;29;20205;-80
2023/01/06 14:42:56;;;;;;;9.40;8.90;;;11.20;99.90;;;;;;4867289;29;20212;-79
2023/01/06 14:45:26;;;;;;;9.50;9.00;;;11.20;99.90;;;;;;4865031;29;20204;-80
2023/01/06 14:47:56;;;;;;;9.40;8.90;;;11.20;99.90;;;;;;4863476;29;20219;-80
2023/01/06 14:50:28;;;;;;;9.80;9.20;;;11.10;99.90;;;;;;4867633;29;20263;-80
2023/01/06 14:52:59;;;;;;;9.37;8.83;;;11.10;99.90;;;;;;4863195;29;20206;-80
2023/01/06 14:55:31;;;;;;;9.37;8.87;;;11.10;99.90;;;;;;4867018;29;20214;-81
2023/01/06 14:57:58;;;;;;;9.37;8.87;;;11.10;99.90;;;;;;4865039;29;20286;-80
2023/01/06 15:00:28;;;;;;;9.87;9.37;;;11.00;99.90;;;;;;4861726;29;20232;-80
2023/01/06 15:02:57;;;;;;;9.33;8.83;;;11.00;99.90;;;;;;4869085;29;20228;-80
2023/01/06 15:05:28;;;;;;;9.37;8.87;;;11.00;99.90;;;;;;4862225;29;20211;-81
2023/01/06 15:08:00;;;;;;;9.70;9.20;;;11.00;99.90;;;;;;4863365;29;20752;-81
2023/01/06 15:10:29;;;;;;;10.10;9.60;;;10.90;99.90;;;;;;4863986;29;20681;-81
2023/01/06 15:12:56;;;;;;;9.60;9.10;;;10.90;99.90;;;;;;4868416;29;20203;-80
2023/01/06 15:15:26;;;;;;;9.70;9.20;;;10.90;99.90;;;;;;4865070;29;20220;-81
2023/01/06 15:17:55;;;;;;;9.60;9.10;;;10.80;99.90;;;;;;4869100;29;20219;-81
2023/01/06 15:20:37;;;;;;;9.80;9.30;;;10.80;99.90;;;;;;4870391;29;20219;-84
2023/01/06 15:23:37;;;;;;;10.00;9.50;;;10.80;99.90;;;;;;4876976;29;20228;-82
2023/01/06 15:26:05;;;;;;;9.87;9.37;;;10.80;99.90;;;;;;4870280;29;20206;-81
2023/01/06 15:29:01;;;;;;;10.75;10.15;;;10.80;99.90;;;;;;4875010;29;20458;-79
2023/01/06 15:31:33;;;;;;;12.23;11.53;;;10.80;99.90;;;;;;4866033;29;20218;-80
2023/01/06 15:34:04;;;;;;;9.90;9.40;;;10.70;99.90;;;;;;4871168;29;20223;-80
2023/01/06 15:36:33;;;;;;;9.73;9.23;;;10.70;99.90;;;;;;4860971;29;20658;-80
2023/01/06 15:39:02;;;;;;;10.50;9.90;;;10.70;99.90;;;;;;4868136;29;20201;-80
2023/01/06 15:41:32;;;;;;;10.63;10.03;;;10.70;99.90;;;;;;4864083;29;20280;-80
2023/01/06 15:44:03;;;;;;;10.43;9.90;;;10.60;99.90;;;;;;4873655;29;20210;-80
2023/01/06 15:46:38;;;;;;;10.60;10.00;;;10.60;99.90;;;;;;4862945;29;20221;-80
2023/01/06 15:49:06;;;;;;;16.93;15.57;;;10.60;99.90;;;;;;4873284;29;20205;-80
2023/01/06 15:51:34;;;;;;;16.07;14.77;;;10.60;99.90;;;;;;4858948;29;20278;-80
2023/01/06 15:54:01;;;;;;;13.93;12.93;;;10.60;99.90;;;;;;4874460;29;20207;-79
2023/01/06 15:56:30;;;;;;;12.17;11.37;;;10.60;99.90;;;;;;4859589;29;20207;-79
2023/01/06 15:58:58;;;;;;;11.70;11.00;;;10.50;99.90;;;;;;4862728;29;20780;-80
2023/01/06 16:01:25;;;;;;;11.33;10.63;;;10.50;99.90;;;;;;4868228;29;20656;-80